Portada
METAR-TAF:

METAR-TAF

Aeropuertos :

Aeropuerto Devi Ahilyabai Holkar

Indore, India

latitud: 22-43N, longitud: 075-48E, altitud: 561 m

Observación

El informe se hizo hace 16 minutos, a las 15:30 UTC
Viento calma
Temperatura 23°C
Humedad 47%
Presión 1017 hPa
Visibilidad: 6000 m

METAR: VAID 261530Z 00000KT 6000 NSC 23/11 Q1017 NOSIG

Hora: 21:16 (15:46 UTC)

Pronóstico

El informe se hizo hace 1 hora y 46 minutos, a las 14:00 UTC
Pronóstico válido del 26 a las 15 UTC al 26 a las 24 UTC
Viento 5 kt del noreste
Visibilidad: 6000 m
Evolucionando progresivamente
del 26 a las 22 UTC al 26 a las 24 UTC
Viento 5 kt del noreste
Visibilidad: 5000 m
calima

TAF: VAID 261400Z 2615/2624 05005KT 6000 NSC BECMG 2622/2624 05005KT 5000 HZ NSC

Observaciones y pronósticos meteorológicos de más de 4000 aeropuertos (mensajes METAR y TAF).

Los puntos amarillos y rojos representan las estaciones disponibles.

Ponga el ratón en el punto deseado para ver el nombre de la estación.

Haga clic para ver las observaciones y los pronósticos meteorológicos.

Para cambiar el mapa : haga clic en los botones verdes con una cruz de color negro para hacer un zoom, en el botón verde con un guión para alejar o en las flechas verdes para mapas adyacentes.


METAR-TAF: